sensor_id;sensor_type;location;lat;lon;timestamp;P1;durP1;ratioP1;P2;durP2;ratioP2
43990;SDS011;29654;50.784;20.604;2024-03-08T00:02:52;32.40;;;20.05;;
43990;SDS011;29654;50.784;20.604;2024-03-08T00:07:55;40.15;;;24.25;;
43990;SDS011;29654;50.784;20.604;2024-03-08T00:12:57;36.78;;;22.65;;
43990;SDS011;29654;50.784;20.604;2024-03-08T00:18:01;40.45;;;22.05;;
43990;SDS011;29654;50.784;20.604;2024-03-08T00:23:05;36.42;;;21.92;;
43990;SDS011;29654;50.784;20.604;2024-03-08T00:28:07;34.78;;;20.48;;
43990;SDS011;29654;50.784;20.604;2024-03-08T00:33:15;30.98;;;18.88;;
43990;SDS011;29654;50.784;20.604;2024-03-08T00:38:18;30.42;;;18.67;;
43990;SDS011;29654;50.784;20.604;2024-03-08T00:43:20;32.97;;;20.05;;
43990;SDS011;29654;50.784;20.604;2024-03-08T00:48:25;35.38;;;20.92;;
43990;SDS011;29654;50.784;20.604;2024-03-08T00:53:28;32.95;;;19.23;;
43990;SDS011;29654;50.784;20.604;2024-03-08T00:58:30;31.83;;;19.00;;
43990;SDS011;29654;50.784;20.604;2024-03-08T01:03:35;28.67;;;17.70;;
43990;SDS011;29654;50.784;20.604;2024-03-08T01:08:39;34.63;;;19.65;;
43990;SDS011;29654;50.784;20.604;2024-03-08T01:13:42;33.25;;;18.63;;
43990;SDS011;29654;50.784;20.604;2024-03-08T01:18:48;31.88;;;19.33;;
43990;SDS011;29654;50.784;20.604;2024-03-08T01:23:51;29.58;;;19.42;;
43990;SDS011;29654;50.784;20.604;2024-03-08T01:28:54;31.67;;;19.43;;
43990;SDS011;29654;50.784;20.604;2024-03-08T01:34:01;28.20;;;16.98;;
43990;SDS011;29654;50.784;20.604;2024-03-08T01:39:04;25.97;;;17.23;;
43990;SDS011;29654;50.784;20.604;2024-03-08T01:44:08;29.63;;;18.23;;
43990;SDS011;29654;50.784;20.604;2024-03-08T01:49:12;26.92;;;16.58;;
43990;SDS011;29654;50.784;20.604;2024-03-08T01:54:18;27.70;;;17.43;;
43990;SDS011;29654;50.784;20.604;2024-03-08T01:59:21;26.90;;;16.27;;
43990;SDS011;29654;50.784;20.604;2024-03-08T02:04:26;30.17;;;17.53;;
43990;SDS011;29654;50.784;20.604;2024-03-08T02:09:31;27.90;;;16.90;;
43990;SDS011;29654;50.784;20.604;2024-03-08T02:14:33;26.43;;;15.80;;
43990;SDS011;29654;50.784;20.604;2024-03-08T02:19:38;27.23;;;16.27;;
43990;SDS011;29654;50.784;20.604;2024-03-08T02:24:42;28.27;;;15.60;;
43990;SDS011;29654;50.784;20.604;2024-03-08T02:29:45;28.50;;;16.20;;
43990;SDS011;29654;50.784;20.604;2024-03-08T02:34:48;38.33;;;19.07;;
43990;SDS011;29654;50.784;20.604;2024-03-08T02:39:52;33.00;;;18.97;;
43990;SDS011;29654;50.784;20.604;2024-03-08T02:44:57;29.53;;;16.70;;
43990;SDS011;29654;50.784;20.604;2024-03-08T02:49:59;30.87;;;17.10;;
43990;SDS011;29654;50.784;20.604;2024-03-08T02:55:05;31.17;;;18.73;;
43990;SDS011;29654;50.784;20.604;2024-03-08T03:00:11;26.50;;;16.37;;
43990;SDS011;29654;50.784;20.604;2024-03-08T03:05:16;27.10;;;17.73;;
43990;SDS011;29654;50.784;20.604;2024-03-08T03:10:20;28.80;;;16.90;;
43990;SDS011;29654;50.784;20.604;2024-03-08T03:15:23;32.27;;;18.93;;
43990;SDS011;29654;50.784;20.604;2024-03-08T03:20:25;29.93;;;18.53;;
43990;SDS011;29654;50.784;20.604;2024-03-08T03:25:34;32.70;;;19.37;;
43990;SDS011;29654;50.784;20.604;2024-03-08T03:30:39;33.80;;;18.90;;
43990;SDS011;29654;50.784;20.604;2024-03-08T03:35:41;34.97;;;20.10;;
43990;SDS011;29654;50.784;20.604;2024-03-08T03:40:45;33.70;;;18.97;;
43990;SDS011;29654;50.784;20.604;2024-03-08T03:45:49;32.50;;;18.30;;
43990;SDS011;29654;50.784;20.604;2024-03-08T03:50:51;33.67;;;18.37;;
43990;SDS011;29654;50.784;20.604;2024-03-08T03:55:55;26.73;;;17.03;;
43990;SDS011;29654;50.784;20.604;2024-03-08T04:00:59;27.47;;;17.33;;
43990;SDS011;29654;50.784;20.604;2024-03-08T04:06:02;29.70;;;16.73;;
43990;SDS011;29654;50.784;20.604;2024-03-08T04:11:07;33.87;;;19.67;;
43990;SDS011;29654;50.784;20.604;2024-03-08T04:16:11;29.33;;;16.67;;
43990;SDS011;29654;50.784;20.604;2024-03-08T04:21:13;30.33;;;18.83;;
43990;SDS011;29654;50.784;20.604;2024-03-08T04:26:20;30.07;;;16.97;;
43990;SDS011;29654;50.784;20.604;2024-03-08T04:31:22;27.07;;;15.83;;
43990;SDS011;29654;50.784;20.604;2024-03-08T04:36:27;29.77;;;17.70;;
43990;SDS011;29654;50.784;20.604;2024-03-08T04:41:31;23.43;;;15.00;;
43990;SDS011;29654;50.784;20.604;2024-03-08T04:46:34;29.50;;;16.73;;
43990;SDS011;29654;50.784;20.604;2024-03-08T04:51:37;22.57;;;14.20;;
43990;SDS011;29654;50.784;20.604;2024-03-08T04:56:42;27.43;;;16.63;;
43990;SDS011;29654;50.784;20.604;2024-03-08T05:01:44;28.17;;;15.43;;
43990;SDS011;29654;50.784;20.604;2024-03-08T05:06:47;25.17;;;15.47;;
43990;SDS011;29654;50.784;20.604;2024-03-08T05:11:51;23.03;;;15.33;;
43990;SDS011;29654;50.784;20.604;2024-03-08T05:16:54;22.83;;;13.70;;
43990;SDS011;29654;50.784;20.604;2024-03-08T05:21:58;23.17;;;13.80;;
43990;SDS011;29654;50.784;20.604;2024-03-08T05:27:02;27.67;;;16.20;;
43990;SDS011;29654;50.784;20.604;2024-03-08T05:32:05;27.27;;;15.97;;
43990;SDS011;29654;50.784;20.604;2024-03-08T05:37:10;28.80;;;16.60;;
43990;SDS011;29654;50.784;20.604;2024-03-08T05:42:14;25.17;;;15.63;;
43990;SDS011;29654;50.784;20.604;2024-03-08T05:47:16;23.77;;;15.07;;
43990;SDS011;29654;50.784;20.604;2024-03-08T05:52:19;23.00;;;14.17;;
43990;SDS011;29654;50.784;20.604;2024-03-08T05:57:24;21.52;;;14.63;;
43990;SDS011;29654;50.784;20.604;2024-03-08T06:02:27;26.92;;;16.42;;
43990;SDS011;29654;50.784;20.604;2024-03-08T06:07:30;20.25;;;13.20;;
43990;SDS011;29654;50.784;20.604;2024-03-08T06:12:34;30.08;;;18.45;;
43990;SDS011;29654;50.784;20.604;2024-03-08T06:17:40;35.08;;;20.33;;
43990;SDS011;29654;50.784;20.604;2024-03-08T06:22:43;38.58;;;21.70;;
43990;SDS011;29654;50.784;20.604;2024-03-08T06:27:47;31.90;;;19.13;;
43990;SDS011;29654;50.784;20.604;2024-03-08T06:32:50;35.75;;;23.58;;
43990;SDS011;29654;50.784;20.604;2024-03-08T06:37:53;30.23;;;20.65;;
43990;SDS011;29654;50.784;20.604;2024-03-08T06:42:57;29.40;;;20.08;;
43990;SDS011;29654;50.784;20.604;2024-03-08T06:48:00;26.80;;;16.70;;
43990;SDS011;29654;50.784;20.604;2024-03-08T06:53:03;32.03;;;18.83;;
43990;SDS011;29654;50.784;20.604;2024-03-08T06:58:07;29.15;;;19.02;;
43990;SDS011;29654;50.784;20.604;2024-03-08T07:03:11;32.55;;;20.90;;
43990;SDS011;29654;50.784;20.604;2024-03-08T07:08:17;26.70;;;17.95;;
43990;SDS011;29654;50.784;20.604;2024-03-08T07:13:23;21.85;;;15.20;;
43990;SDS011;29654;50.784;20.604;2024-03-08T07:18:27;23.05;;;14.30;;
43990;SDS011;29654;50.784;20.604;2024-03-08T07:23:31;21.65;;;14.60;;
43990;SDS011;29654;50.784;20.604;2024-03-08T07:29:04;18.20;;;13.27;;
43990;SDS011;29654;50.784;20.604;2024-03-08T07:34:08;21.77;;;13.70;;
43990;SDS011;29654;50.784;20.604;2024-03-08T07:39:11;21.08;;;13.20;;
43990;SDS011;29654;50.784;20.604;2024-03-08T07:44:15;16.52;;;12.15;;
43990;SDS011;29654;50.784;20.604;2024-03-08T07:49:18;21.88;;;13.27;;
43990;SDS011;29654;50.784;20.604;2024-03-08T07:54:20;18.83;;;13.23;;
43990;SDS011;29654;50.784;20.604;2024-03-08T07:59:25;16.95;;;12.05;;
43990;SDS011;29654;50.784;20.604;2024-03-08T08:04:27;15.82;;;11.32;;
43990;SDS011;29654;50.784;20.604;2024-03-08T08:09:30;17.17;;;12.13;;
43990;SDS011;29654;50.784;20.604;2024-03-08T08:14:36;15.82;;;12.15;;
43990;SDS011;29654;50.784;20.604;2024-03-08T08:19:40;16.02;;;11.82;;
43990;SDS011;29654;50.784;20.604;2024-03-08T08:24:43;12.52;;;10.02;;
43990;SDS011;29654;50.784;20.604;2024-03-08T08:29:47;16.85;;;11.63;;
43990;SDS011;29654;50.784;20.604;2024-03-08T08:34:50;12.35;;;9.75;;
43990;SDS011;29654;50.784;20.604;2024-03-08T08:39:53;13.32;;;9.27;;
43990;SDS011;29654;50.784;20.604;2024-03-08T08:44:57;13.70;;;8.88;;
43990;SDS011;29654;50.784;20.604;2024-03-08T08:49:59;12.43;;;8.43;;
43990;SDS011;29654;50.784;20.604;2024-03-08T08:55:04;12.30;;;8.80;;
43990;SDS011;29654;50.784;20.604;2024-03-08T09:00:09;11.77;;;9.10;;
43990;SDS011;29654;50.784;20.604;2024-03-08T09:05:15;10.88;;;8.80;;
43990;SDS011;29654;50.784;20.604;2024-03-08T09:10:18;12.73;;;9.32;;
43990;SDS011;29654;50.784;20.604;2024-03-08T09:15:23;12.27;;;9.95;;
43990;SDS011;29654;50.784;20.604;2024-03-08T09:20:28;12.77;;;9.10;;
43990;SDS011;29654;50.784;20.604;2024-03-08T09:25:32;12.20;;;9.10;;
43990;SDS011;29654;50.784;20.604;2024-03-08T09:30:36;12.48;;;8.90;;
43990;SDS011;29654;50.784;20.604;2024-03-08T09:35:39;11.90;;;9.13;;
43990;SDS011;29654;50.784;20.604;2024-03-08T09:40:41;14.43;;;10.15;;
43990;SDS011;29654;50.784;20.604;2024-03-08T09:45:46;11.73;;;8.93;;
43990;SDS011;29654;50.784;20.604;2024-03-08T09:50:51;12.63;;;9.25;;
43990;SDS011;29654;50.784;20.604;2024-03-08T09:55:54;10.65;;;8.63;;
43990;SDS011;29654;50.784;20.604;2024-03-08T10:00:58;10.38;;;8.57;;
43990;SDS011;29654;50.784;20.604;2024-03-08T10:06:02;11.90;;;9.50;;
43990;SDS011;29654;50.784;20.604;2024-03-08T10:11:06;12.60;;;8.77;;
43990;SDS011;29654;50.784;20.604;2024-03-08T10:16:11;11.55;;;9.68;;
43990;SDS011;29654;50.784;20.604;2024-03-08T10:21:14;12.85;;;10.05;;
43990;SDS011;29654;50.784;20.604;2024-03-08T10:26:17;11.35;;;8.43;;
43990;SDS011;29654;50.784;20.604;2024-03-08T10:31:23;11.55;;;8.95;;
43990;SDS011;29654;50.784;20.604;2024-03-08T10:36:26;11.43;;;9.10;;
43990;SDS011;29654;50.784;20.604;2024-03-08T10:41:30;11.30;;;9.27;;
43990;SDS011;29654;50.784;20.604;2024-03-08T10:46:39;9.15;;;8.20;;
43990;SDS011;29654;50.784;20.604;2024-03-08T10:51:57;10.23;;;7.90;;
43990;SDS011;29654;50.784;20.604;2024-03-08T10:57:01;9.73;;;8.05;;
43990;SDS011;29654;50.784;20.604;2024-03-08T11:02:09;9.15;;;8.20;;
43990;SDS011;29654;50.784;20.604;2024-03-08T11:07:13;11.95;;;8.60;;
43990;SDS011;29654;50.784;20.604;2024-03-08T11:12:24;9.73;;;8.65;;
43990;SDS011;29654;50.784;20.604;2024-03-08T11:17:46;10.73;;;8.23;;
43990;SDS011;29654;50.784;20.604;2024-03-08T11:22:51;9.63;;;7.53;;
43990;SDS011;29654;50.784;20.604;2024-03-08T11:28:06;9.15;;;7.60;;
43990;SDS011;29654;50.784;20.604;2024-03-08T11:33:19;8.50;;;7.28;;
43990;SDS011;29654;50.784;20.604;2024-03-08T11:38:22;9.07;;;7.50;;
43990;SDS011;29654;50.784;20.604;2024-03-08T11:43:24;10.02;;;7.35;;
43990;SDS011;29654;50.784;20.604;2024-03-08T11:48:28;8.38;;;7.13;;
43990;SDS011;29654;50.784;20.604;2024-03-08T11:53:32;9.07;;;7.60;;
43990;SDS011;29654;50.784;20.604;2024-03-08T11:58:36;9.45;;;7.93;;
43990;SDS011;29654;50.784;20.604;2024-03-08T12:03:42;8.43;;;7.20;;
43990;SDS011;29654;50.784;20.604;2024-03-08T12:08:45;9.80;;;7.82;;
43990;SDS011;29654;50.784;20.604;2024-03-08T12:13:49;8.98;;;7.47;;
43990;SDS011;29654;50.784;20.604;2024-03-08T12:18:55;9.15;;;7.45;;
43990;SDS011;29654;50.784;20.604;2024-03-08T12:24:02;9.32;;;6.95;;
43990;SDS011;29654;50.784;20.604;2024-03-08T12:29:15;8.20;;;6.75;;
43990;SDS011;29654;50.784;20.604;2024-03-08T12:34:22;10.05;;;6.88;;
43990;SDS011;29654;50.784;20.604;2024-03-08T12:39:24;8.52;;;6.80;;
43990;SDS011;29654;50.784;20.604;2024-03-08T12:44:28;7.15;;;5.95;;
43990;SDS011;29654;50.784;20.604;2024-03-08T12:49:32;8.60;;;6.90;;
43990;SDS011;29654;50.784;20.604;2024-03-08T12:54:35;6.85;;;5.85;;
43990;SDS011;29654;50.784;20.604;2024-03-08T12:59:38;8.18;;;6.13;;
43990;SDS011;29654;50.784;20.604;2024-03-08T13:04:44;6.30;;;5.70;;
43990;SDS011;29654;50.784;20.604;2024-03-08T13:09:55;7.55;;;6.45;;
43990;SDS011;29654;50.784;20.604;2024-03-08T13:15:00;7.63;;;5.70;;
43990;SDS011;29654;50.784;20.604;2024-03-08T13:20:07;6.03;;;5.20;;
43990;SDS011;29654;50.784;20.604;2024-03-08T13:25:16;6.57;;;5.82;;
43990;SDS011;29654;50.784;20.604;2024-03-08T13:30:20;8.15;;;6.68;;
43990;SDS011;29654;50.784;20.604;2024-03-08T13:35:26;6.25;;;5.45;;
43990;SDS011;29654;50.784;20.604;2024-03-08T13:40:30;7.38;;;6.43;;
43990;SDS011;29654;50.784;20.604;2024-03-08T13:45:34;6.63;;;5.93;;
43990;SDS011;29654;50.784;20.604;2024-03-08T13:50:43;7.28;;;6.30;;
43990;SDS011;29654;50.784;20.604;2024-03-08T13:55:46;7.05;;;6.45;;
43990;SDS011;29654;50.784;20.604;2024-03-08T14:00:49;7.53;;;6.43;;
43990;SDS011;29654;50.784;20.604;2024-03-08T14:05:53;6.88;;;5.65;;
43990;SDS011;29654;50.784;20.604;2024-03-08T14:10:57;8.18;;;6.35;;
43990;SDS011;29654;50.784;20.604;2024-03-08T14:16:05;7.53;;;6.47;;
43990;SDS011;29654;50.784;20.604;2024-03-08T14:21:11;7.20;;;6.25;;
43990;SDS011;29654;50.784;20.604;2024-03-08T14:26:13;8.02;;;6.93;;
43990;SDS011;29654;50.784;20.604;2024-03-08T14:31:16;7.65;;;6.85;;
43990;SDS011;29654;50.784;20.604;2024-03-08T14:36:21;7.85;;;6.75;;
43990;SDS011;29654;50.784;20.604;2024-03-08T14:41:25;7.60;;;6.68;;
43990;SDS011;29654;50.784;20.604;2024-03-08T14:46:28;7.38;;;6.68;;
43990;SDS011;29654;50.784;20.604;2024-03-08T14:51:32;7.65;;;6.43;;
43990;SDS011;29654;50.784;20.604;2024-03-08T14:56:35;7.97;;;7.18;;
43990;SDS011;29654;50.784;20.604;2024-03-08T15:01:38;7.20;;;6.47;;
43990;SDS011;29654;50.784;20.604;2024-03-08T15:06:44;9.88;;;7.15;;
43990;SDS011;29654;50.784;20.604;2024-03-08T15:11:48;8.63;;;7.40;;
43990;SDS011;29654;50.784;20.604;2024-03-08T15:16:51;9.75;;;7.38;;
43990;SDS011;29654;50.784;20.604;2024-03-08T15:21:55;8.43;;;6.80;;
43990;SDS011;29654;50.784;20.604;2024-03-08T15:26:58;8.80;;;7.20;;
43990;SDS011;29654;50.784;20.604;2024-03-08T15:32:02;9.70;;;8.10;;
43990;SDS011;29654;50.784;20.604;2024-03-08T15:37:08;8.48;;;7.55;;
43990;SDS011;29654;50.784;20.604;2024-03-08T15:42:16;8.77;;;7.40;;
43990;SDS011;29654;50.784;20.604;2024-03-08T15:47:18;11.10;;;7.70;;
43990;SDS011;29654;50.784;20.604;2024-03-08T15:52:24;10.50;;;8.23;;
43990;SDS011;29654;50.784;20.604;2024-03-08T15:57:27;9.05;;;7.97;;
43990;SDS011;29654;50.784;20.604;2024-03-08T16:02:30;7.10;;;6.40;;
43990;SDS011;29654;50.784;20.604;2024-03-08T16:07:35;8.15;;;6.88;;
43990;SDS011;29654;50.784;20.604;2024-03-08T16:12:37;7.95;;;6.85;;
43990;SDS011;29654;50.784;20.604;2024-03-08T16:17:40;9.15;;;7.75;;
43990;SDS011;29654;50.784;20.604;2024-03-08T16:22:45;9.65;;;7.60;;
43990;SDS011;29654;50.784;20.604;2024-03-08T16:27:52;7.57;;;6.45;;
43990;SDS011;29654;50.784;20.604;2024-03-08T16:32:54;9.20;;;7.93;;
43990;SDS011;29654;50.784;20.604;2024-03-08T16:37:58;8.90;;;7.85;;
43990;SDS011;29654;50.784;20.604;2024-03-08T16:43:01;7.07;;;6.25;;
43990;SDS011;29654;50.784;20.604;2024-03-08T16:48:04;4.15;;;3.70;;
43990;SDS011;29654;50.784;20.604;2024-03-08T16:53:09;6.03;;;5.40;;
43990;SDS011;29654;50.784;20.604;2024-03-08T16:58:13;6.97;;;6.03;;
43990;SDS011;29654;50.784;20.604;2024-03-08T17:03:15;5.95;;;5.10;;
43990;SDS011;29654;50.784;20.604;2024-03-08T17:08:19;7.78;;;6.32;;
43990;SDS011;29654;50.784;20.604;2024-03-08T17:13:22;6.35;;;5.43;;
43990;SDS011;29654;50.784;20.604;2024-03-08T17:18:25;8.63;;;6.38;;
43990;SDS011;29654;50.784;20.604;2024-03-08T17:23:31;8.32;;;5.97;;
43990;SDS011;29654;50.784;20.604;2024-03-08T17:28:34;7.63;;;5.95;;
43990;SDS011;29654;50.784;20.604;2024-03-08T17:33:41;10.30;;;7.50;;
43990;SDS011;29654;50.784;20.604;2024-03-08T17:38:46;11.27;;;7.15;;
43990;SDS011;29654;50.784;20.604;2024-03-08T17:43:51;14.23;;;9.00;;
43990;SDS011;29654;50.784;20.604;2024-03-08T17:48:55;15.40;;;10.05;;
43990;SDS011;29654;50.784;20.604;2024-03-08T17:53:59;13.80;;;9.23;;
43990;SDS011;29654;50.784;20.604;2024-03-08T17:59:03;15.15;;;11.85;;
43990;SDS011;29654;50.784;20.604;2024-03-08T18:04:08;13.77;;;9.88;;
43990;SDS011;29654;50.784;20.604;2024-03-08T18:09:12;15.75;;;12.63;;
43990;SDS011;29654;50.784;20.604;2024-03-08T18:14:15;17.20;;;11.95;;
43990;SDS011;29654;50.784;20.604;2024-03-08T18:19:18;20.95;;;13.20;;
43990;SDS011;29654;50.784;20.604;2024-03-08T18:24:22;19.88;;;12.98;;
43990;SDS011;29654;50.784;20.604;2024-03-08T18:29:26;17.42;;;14.13;;
43990;SDS011;29654;50.784;20.604;2024-03-08T18:34:28;19.83;;;13.77;;
43990;SDS011;29654;50.784;20.604;2024-03-08T18:39:33;21.45;;;13.13;;
43990;SDS011;29654;50.784;20.604;2024-03-08T18:44:37;21.55;;;14.23;;
43990;SDS011;29654;50.784;20.604;2024-03-08T18:49:40;19.10;;;13.93;;
43990;SDS011;29654;50.784;20.604;2024-03-08T18:54:45;21.05;;;15.30;;
43990;SDS011;29654;50.784;20.604;2024-03-08T18:59:47;27.25;;;16.52;;
43990;SDS011;29654;50.784;20.604;2024-03-08T19:04:50;19.98;;;15.10;;
43990;SDS011;29654;50.784;20.604;2024-03-08T19:09:57;22.15;;;15.60;;
43990;SDS011;29654;50.784;20.604;2024-03-08T19:14:59;23.10;;;15.07;;
43990;SDS011;29654;50.784;20.604;2024-03-08T19:20:09;19.30;;;14.85;;
43990;SDS011;29654;50.784;20.604;2024-03-08T19:25:20;24.25;;;16.02;;
43990;SDS011;29654;50.784;20.604;2024-03-08T19:30:27;25.92;;;16.95;;
43990;SDS011;29654;50.784;20.604;2024-03-08T19:35:31;23.35;;;16.20;;
43990;SDS011;29654;50.784;20.604;2024-03-08T19:40:37;24.38;;;16.10;;
43990;SDS011;29654;50.784;20.604;2024-03-08T19:45:41;25.38;;;17.70;;
43990;SDS011;29654;50.784;20.604;2024-03-08T19:50:45;27.40;;;16.73;;
43990;SDS011;29654;50.784;20.604;2024-03-08T19:55:51;23.88;;;16.13;;
43990;SDS011;29654;50.784;20.604;2024-03-08T20:00:57;28.55;;;17.35;;
43990;SDS011;29654;50.784;20.604;2024-03-08T20:06:00;31.08;;;18.92;;
43990;SDS011;29654;50.784;20.604;2024-03-08T20:11:07;34.20;;;20.20;;
43990;SDS011;29654;50.784;20.604;2024-03-08T20:16:10;25.33;;;15.77;;
43990;SDS011;29654;50.784;20.604;2024-03-08T20:21:13;22.05;;;15.13;;
43990;SDS011;29654;50.784;20.604;2024-03-08T20:26:17;27.92;;;19.80;;
43990;SDS011;29654;50.784;20.604;2024-03-08T20:31:22;51.35;;;32.17;;
43990;SDS011;29654;50.784;20.604;2024-03-08T20:36:25;54.45;;;31.88;;
43990;SDS011;29654;50.784;20.604;2024-03-08T20:41:29;47.55;;;29.80;;
43990;SDS011;29654;50.784;20.604;2024-03-08T20:46:32;46.45;;;29.05;;
43990;SDS011;29654;50.784;20.604;2024-03-08T20:51:34;48.65;;;29.67;;
43990;SDS011;29654;50.784;20.604;2024-03-08T20:56:39;46.15;;;30.30;;
43990;SDS011;29654;50.784;20.604;2024-03-08T21:01:42;48.85;;;29.35;;
43990;SDS011;29654;50.784;20.604;2024-03-08T21:06:45;45.95;;;27.92;;
43990;SDS011;29654;50.784;20.604;2024-03-08T21:11:49;46.05;;;26.80;;
43990;SDS011;29654;50.784;20.604;2024-03-08T21:16:52;38.45;;;23.73;;
43990;SDS011;29654;50.784;20.604;2024-03-08T21:21:56;43.05;;;26.88;;
43990;SDS011;29654;50.784;20.604;2024-03-08T21:27:00;43.58;;;26.95;;
43990;SDS011;29654;50.784;20.604;2024-03-08T21:32:02;39.58;;;26.88;;
43990;SDS011;29654;50.784;20.604;2024-03-08T21:37:07;46.95;;;29.08;;
43990;SDS011;29654;50.784;20.604;2024-03-08T21:42:12;53.67;;;29.67;;
43990;SDS011;29654;50.784;20.604;2024-03-08T21:47:15;56.20;;;30.67;;
43990;SDS011;29654;50.784;20.604;2024-03-08T21:52:19;59.25;;;33.47;;
43990;SDS011;29654;50.784;20.604;2024-03-08T21:57:24;50.17;;;30.73;;
43990;SDS011;29654;50.784;20.604;2024-03-08T22:02:28;53.05;;;29.20;;
43990;SDS011;29654;50.784;20.604;2024-03-08T22:07:31;58.00;;;31.90;;
43990;SDS011;29654;50.784;20.604;2024-03-08T22:12:37;41.88;;;24.50;;
43990;SDS011;29654;50.784;20.604;2024-03-08T22:17:40;51.90;;;27.88;;
43990;SDS011;29654;50.784;20.604;2024-03-08T22:22:43;50.67;;;28.10;;
43990;SDS011;29654;50.784;20.604;2024-03-08T22:27:49;52.72;;;27.67;;
43990;SDS011;29654;50.784;20.604;2024-03-08T22:32:52;54.92;;;28.73;;
43990;SDS011;29654;50.784;20.604;2024-03-08T22:37:56;50.13;;;27.17;;
43990;SDS011;29654;50.784;20.604;2024-03-08T22:43:00;49.42;;;28.45;;
43990;SDS011;29654;50.784;20.604;2024-03-08T22:48:02;42.50;;;25.65;;
43990;SDS011;29654;50.784;20.604;2024-03-08T22:53:07;45.15;;;27.63;;
43990;SDS011;29654;50.784;20.604;2024-03-08T22:58:15;48.70;;;27.85;;
43990;SDS011;29654;50.784;20.604;2024-03-08T23:03:17;42.85;;;23.48;;
43990;SDS011;29654;50.784;20.604;2024-03-08T23:08:23;38.88;;;23.85;;
43990;SDS011;29654;50.784;20.604;2024-03-08T23:13:31;41.42;;;22.15;;
43990;SDS011;29654;50.784;20.604;2024-03-08T23:18:35;33.72;;;21.05;;
43990;SDS011;29654;50.784;20.604;2024-03-08T23:23:38;45.30;;;25.10;;
43990;SDS011;29654;50.784;20.604;2024-03-08T23:28:42;40.75;;;23.88;;
43990;SDS011;29654;50.784;20.604;2024-03-08T23:33:45;42.80;;;23.80;;
43990;SDS011;29654;50.784;20.604;2024-03-08T23:38:50;41.22;;;24.90;;
43990;SDS011;29654;50.784;20.604;2024-03-08T23:43:54;42.40;;;25.13;;
43990;SDS011;29654;50.784;20.604;2024-03-08T23:48:57;44.38;;;26.80;;
43990;SDS011;29654;50.784;20.604;2024-03-08T23:54:00;41.25;;;25.50;;
43990;SDS011;29654;50.784;20.604;2024-03-08T23:59:06;38.85;;;22.05;;
